createdAt,value
2023-04-15T00:00:01.332Z,96472.02
2023-04-15T00:02:28.597Z,96472.34
2023-04-15T00:04:55.174Z,96469.69
2023-04-15T00:07:21.476Z,96467.89
2023-04-15T00:09:47.733Z,96466.05
2023-04-15T00:12:14.019Z,96460.42
2023-04-15T00:14:40.353Z,96461.86
2023-04-15T00:17:06.622Z,96463.33
2023-04-15T00:19:32.881Z,96472.27
2023-04-15T00:21:59.377Z,96474.52
2023-04-15T00:24:25.739Z,96473.30
2023-04-15T00:26:52.067Z,96477.40
2023-04-15T00:29:18.481Z,96477.02
2023-04-15T00:31:44.827Z,96481.05
2023-04-15T00:34:11.686Z,96482.42
2023-04-15T00:36:37.953Z,96487.90
2023-04-15T00:39:04.237Z,96490.08
2023-04-15T00:41:30.510Z,96501.31
2023-04-15T00:43:56.753Z,96509.31
2023-04-15T00:46:23.388Z,96512.16
2023-04-15T00:48:50.634Z,96508.47
2023-04-15T00:51:16.929Z,96507.16
2023-04-15T00:53:43.215Z,96504.67
2023-04-15T00:56:09.614Z,96506.67
2023-04-15T00:58:36.140Z,96499.39
2023-04-15T01:01:03.214Z,96489.17
2023-04-15T01:03:30.004Z,96490.74
2023-04-15T01:05:56.518Z,96497.06
2023-04-15T01:08:23.532Z,96496.52
2023-04-15T01:10:50.170Z,96493.36
2023-04-15T01:13:16.489Z,96497.11
2023-04-15T01:15:43.177Z,96496.91
2023-04-15T01:18:09.548Z,96491.27
2023-04-15T01:20:38.094Z,96497.08
2023-04-15T01:23:04.493Z,96501.55
2023-04-15T01:25:34.244Z,96494.86
2023-04-15T01:28:00.790Z,96488.86
2023-04-15T01:30:27.434Z,96488.17
2023-04-15T01:32:54.130Z,96488.74
2023-04-15T01:35:22.100Z,96494.79
2023-04-15T01:37:51.259Z,96500.27
2023-04-15T01:40:17.800Z,96500.91
2023-04-15T01:42:44.181Z,96497.41
2023-04-15T01:45:10.631Z,96496.15
2023-04-15T01:47:37.769Z,96503.55
2023-04-15T01:50:04.691Z,96505.36
2023-04-15T01:52:31.072Z,96507.72
2023-04-15T01:54:57.406Z,96513.98
2023-04-15T01:57:23.762Z,96517.96
2023-04-15T01:59:51.291Z,96522.56
2023-04-15T02:02:17.634Z,96524.98
2023-04-15T02:04:44.066Z,96527.02
2023-04-15T02:07:10.314Z,96532.56
2023-04-15T02:09:36.688Z,96530.39
2023-04-15T02:12:02.995Z,96534.95
2023-04-15T02:14:29.246Z,96533.12
2023-04-15T02:16:55.699Z,96533.75
2023-04-15T02:19:21.997Z,96532.66
2023-04-15T02:21:48.246Z,96531.41
2023-04-15T02:24:17.326Z,96535.97
2023-04-15T02:26:43.637Z,96530.04
2023-04-15T02:29:09.893Z,96532.84
2023-04-15T02:31:36.207Z,96532.92
2023-04-15T02:34:02.564Z,96532.54
2023-04-15T02:36:28.797Z,96536.83
2023-04-15T02:38:55.219Z,96540.02
2023-04-15T02:41:22.154Z,96548.36
2023-04-15T02:43:48.397Z,96551.27
2023-04-15T02:46:14.910Z,96551.64
2023-04-15T02:48:41.275Z,96550.47
2023-04-15T02:51:18.667Z,96555.58
2023-04-15T02:53:45.614Z,96562.91
2023-04-15T02:56:12.050Z,96561.88
2023-04-15T02:58:38.972Z,96560.91
2023-04-15T03:01:05.346Z,96567.65
2023-04-15T03:03:31.833Z,96563.48
2023-04-15T03:05:58.253Z,96570.56
2023-04-15T03:08:24.614Z,96577.48
2023-04-15T03:10:51.021Z,96581.25
2023-04-15T03:13:17.460Z,96583.08
2023-04-15T03:15:46.100Z,96580.41
2023-04-15T03:18:12.517Z,96573.24
2023-04-15T03:20:40.078Z,96571.51
2023-04-15T03:23:06.685Z,96574.83
2023-04-15T03:25:33.038Z,96580.25
2023-04-15T03:28:00.041Z,96582.48
2023-04-15T03:30:26.387Z,96580.45
2023-04-15T03:32:52.744Z,96587.72
2023-04-15T03:35:19.213Z,96593.64
2023-04-15T03:37:45.485Z,96598.33
2023-04-15T03:40:11.983Z,96601.20
2023-04-15T03:42:38.263Z,96603.00
2023-04-15T03:45:04.979Z,96603.22
2023-04-15T03:47:31.223Z,96607.36
2023-04-15T03:49:57.551Z,96611.52
2023-04-15T03:52:23.771Z,96617.36
2023-04-15T03:54:50.031Z,96613.61
2023-04-15T03:57:16.247Z,96617.50
2023-04-15T03:59:42.511Z,96621.96
2023-04-15T04:02:08.898Z,96620.52
2023-04-15T04:04:35.319Z,96614.43
2023-04-15T04:07:01.659Z,96610.02
2023-04-15T04:09:27.973Z,96605.82
2023-04-15T04:11:54.300Z,96617.52
2023-04-15T04:14:20.767Z,96623.48
2023-04-15T04:16:46.984Z,96635.54
2023-04-15T04:19:13.335Z,96631.39
2023-04-15T04:21:39.667Z,96627.48
2023-04-15T04:24:05.907Z,96635.64
2023-04-15T04:26:32.130Z,96644.29
2023-04-15T04:28:58.544Z,96647.67
2023-04-15T04:31:25.120Z,96649.69
2023-04-15T04:33:51.379Z,96650.76
2023-04-15T04:36:17.742Z,96650.38
2023-04-15T04:38:44.036Z,96657.54
2023-04-15T04:41:10.325Z,96666.11
2023-04-15T04:43:36.621Z,96666.84
2023-04-15T04:46:02.942Z,96669.13
2023-04-15T04:48:29.239Z,96664.48
2023-04-15T04:50:55.520Z,96657.53
2023-04-15T04:53:21.781Z,96656.88
2023-04-15T04:55:48.075Z,96657.55
2023-04-15T04:58:14.337Z,96658.80
2023-04-15T05:00:40.661Z,96663.20
2023-04-15T05:03:07.316Z,96665.63
2023-04-15T05:05:33.800Z,96657.96
2023-04-15T05:08:00.152Z,96656.05
2023-04-15T05:10:26.501Z,96664.33
2023-04-15T05:12:52.793Z,96660.42
2023-04-15T05:15:19.073Z,96660.63
2023-04-15T05:17:45.365Z,96658.60
2023-04-15T05:20:11.922Z,96662.13
2023-04-15T05:22:38.335Z,96664.52
2023-04-15T05:25:04.809Z,96667.89
2023-04-15T05:27:31.190Z,96669.77
2023-04-15T05:29:57.588Z,96670.98
2023-04-15T05:32:23.908Z,96673.84
2023-04-15T05:34:50.288Z,96668.76
2023-04-15T05:37:16.529Z,96668.67
2023-04-15T05:39:42.884Z,96671.90
2023-04-15T05:42:09.175Z,96677.11
2023-04-15T05:44:35.567Z,96674.41
2023-04-15T05:47:01.848Z,96678.33
2023-04-15T05:49:28.464Z,96677.66
2023-04-15T05:51:54.943Z,96678.23
2023-04-15T05:54:21.314Z,96678.77
2023-04-15T05:56:47.864Z,96682.92
2023-04-15T05:59:14.274Z,96682.44
2023-04-15T06:01:40.527Z,96684.63
2023-04-15T06:04:06.865Z,96685.70
2023-04-15T06:06:33.185Z,96685.19
2023-04-15T06:08:59.870Z,96688.81
2023-04-15T06:11:26.511Z,96689.95
2023-04-15T06:13:53.186Z,96690.72
2023-04-15T06:16:19.832Z,96687.67
2023-04-15T06:18:46.221Z,96686.88
2023-04-15T06:21:12.520Z,96687.16
2023-04-15T06:23:38.827Z,96687.95
2023-04-15T06:26:05.095Z,96688.52
2023-04-15T06:28:31.410Z,96691.28
2023-04-15T06:31:00.860Z,96695.48
2023-04-15T06:33:27.259Z,96697.83
2023-04-15T06:35:53.594Z,96700.30
2023-04-15T06:38:20.999Z,96706.16
2023-04-15T06:40:48.459Z,96708.41
2023-04-15T06:46:09.814Z,96712.77
2023-04-15T06:48:36.479Z,96715.45
2023-04-15T06:51:03.558Z,96716.80
2023-04-15T06:53:32.133Z,96722.30
2023-04-15T06:56:05.242Z,96724.48
2023-04-15T06:58:35.206Z,96727.84
2023-04-15T07:01:02.143Z,96731.96
2023-04-15T07:03:33.180Z,96736.57
2023-04-15T07:06:00.995Z,96739.34
2023-04-15T07:08:41.785Z,96744.70
2023-04-15T07:11:19.072Z,96740.33
2023-04-15T07:13:47.150Z,96739.73
2023-04-15T07:16:18.553Z,96744.66
2023-04-15T07:18:45.078Z,96741.59
2023-04-15T07:21:17.254Z,96746.08
2023-04-15T07:23:44.080Z,96751.29
2023-04-15T07:26:10.516Z,96752.52
2023-04-15T07:28:36.802Z,96750.17
2023-04-15T07:31:03.528Z,96746.95
2023-04-15T07:33:29.943Z,96748.42
2023-04-15T07:35:56.209Z,96748.27
2023-04-15T07:38:22.566Z,96746.65
2023-04-15T07:40:52.620Z,96745.83
2023-04-15T07:43:20.559Z,96750.84
2023-04-15T07:45:46.990Z,96752.77
2023-04-15T07:48:13.411Z,96756.91
2023-04-15T07:50:39.869Z,96764.94
2023-04-15T07:53:06.422Z,96765.88
2023-04-15T07:55:32.793Z,96767.48
2023-04-15T07:57:59.156Z,96770.55
2023-04-15T08:00:25.521Z,96771.10
2023-04-15T08:02:52.147Z,96774.00
2023-04-15T08:05:19.123Z,96774.00
2023-04-15T08:07:45.575Z,96772.76
2023-04-15T08:10:12.004Z,96776.35
2023-04-15T08:12:38.472Z,96774.82
2023-04-15T08:15:05.132Z,96776.26
2023-04-15T08:17:31.530Z,96776.84
2023-04-15T08:19:59.440Z,96776.95
2023-04-15T08:22:25.981Z,96774.80
2023-04-15T08:24:52.261Z,96776.17
2023-04-15T08:27:18.573Z,96774.80
2023-04-15T08:29:44.845Z,96776.88
2023-04-15T08:32:11.249Z,96777.48
2023-04-15T08:34:37.552Z,96778.00
2023-04-15T08:37:03.861Z,96782.27
2023-04-15T08:39:30.301Z,96784.39
2023-04-15T08:42:03.697Z,96785.77
2023-04-15T08:44:32.586Z,96784.63
2023-04-15T08:47:02.497Z,96784.84
2023-04-15T08:49:29.407Z,96785.58
2023-04-15T08:51:57.867Z,96786.84
2023-04-15T08:54:24.709Z,96782.49
2023-04-15T08:56:51.971Z,96790.17
2023-04-15T08:59:19.129Z,96784.87
2023-04-15T09:01:45.622Z,96785.28
2023-04-15T09:04:12.079Z,96786.93
2023-04-15T09:06:39.032Z,96787.16
2023-04-15T09:09:05.354Z,96790.38
2023-04-15T09:11:40.069Z,96789.70
2023-04-15T09:14:06.625Z,96789.73
2023-04-15T09:16:53.466Z,96787.98
2023-04-15T09:19:20.682Z,96791.88
2023-04-15T09:21:47.298Z,96791.60
2023-04-15T09:24:13.644Z,96796.38
2023-04-15T09:26:39.975Z,96799.20
2023-04-15T09:29:07.671Z,96798.09
2023-04-15T09:31:34.692Z,96793.79
2023-04-15T09:34:01.567Z,96790.90
2023-04-15T09:36:28.040Z,96787.73
2023-04-15T09:38:55.960Z,96786.02
2023-04-15T09:41:22.592Z,96784.73
2023-04-15T09:43:48.895Z,96785.53
2023-04-15T09:46:15.296Z,96782.40
2023-04-15T09:48:41.969Z,96783.18
2023-04-15T09:51:08.356Z,96785.31
2023-04-15T09:53:35.579Z,96788.23
2023-04-15T09:56:02.093Z,96787.33
2023-04-15T09:58:32.810Z,96790.59
2023-04-15T10:00:59.845Z,96790.27
2023-04-15T10:03:27.598Z,96789.17
2023-04-15T10:05:55.352Z,96790.21
2023-04-15T10:08:22.984Z,96793.54
2023-04-15T10:10:49.276Z,96795.05
2023-04-15T10:13:17.040Z,96790.16
2023-04-15T10:15:44.100Z,96791.22
2023-04-15T10:18:11.004Z,96795.02
2023-04-15T10:20:38.165Z,96792.51
2023-04-15T10:23:05.920Z,96795.05
2023-04-15T10:25:33.504Z,96794.17
2023-04-15T10:27:59.976Z,96797.60
2023-04-15T10:30:26.783Z,96796.99
2023-04-15T10:32:53.726Z,96794.77
2023-04-15T10:35:20.742Z,96794.01
2023-04-15T10:37:47.261Z,96790.04
2023-04-15T10:40:23.540Z,96787.94
2023-04-15T10:42:49.921Z,96786.02
2023-04-15T10:45:16.414Z,96787.61
2023-04-15T10:47:42.918Z,96791.92
2023-04-15T10:50:10.229Z,96794.08
2023-04-15T10:52:39.964Z,96787.61
2023-04-15T10:55:12.230Z,96783.77
2023-04-15T10:57:39.847Z,96788.04
2023-04-15T11:00:10.271Z,96788.60
2023-04-15T11:02:53.843Z,96789.09
2023-04-15T11:05:21.369Z,96785.20
2023-04-15T11:07:49.337Z,96787.13
2023-04-15T11:10:24.797Z,96786.56
2023-04-15T11:12:52.329Z,96786.05
2023-04-15T11:15:28.119Z,96785.54
2023-04-15T11:17:54.888Z,96786.33
2023-04-15T11:20:21.153Z,96784.47
2023-04-15T11:22:51.224Z,96785.89
2023-04-15T11:25:24.060Z,96785.88
2023-04-15T11:27:50.360Z,96785.32
2023-04-15T11:30:20.636Z,96784.32
2023-04-15T11:32:47.643Z,96783.36
2023-04-15T11:35:13.982Z,96782.48
2023-04-15T11:37:40.384Z,96783.20
2023-04-15T11:40:08.192Z,96782.48
2023-04-15T11:42:48.563Z,96782.01
2023-04-15T11:45:16.163Z,96786.08
2023-04-15T11:47:42.522Z,96785.56
2023-04-15T11:50:21.956Z,96787.44
2023-04-15T11:52:58.720Z,96786.02
2023-04-15T11:55:25.441Z,96787.27
2023-04-15T11:58:10.799Z,96787.04
2023-04-15T12:00:37.834Z,96792.11
2023-04-15T12:03:13.882Z,96794.52
2023-04-15T12:05:59.057Z,96797.52
2023-04-15T12:08:25.463Z,96799.20
2023-04-15T12:10:58.148Z,96798.98
2023-04-15T12:13:26.954Z,96795.81
2023-04-15T12:15:54.925Z,96793.55
2023-04-15T12:18:21.292Z,96795.06
2023-04-15T12:20:47.658Z,96794.80
2023-04-15T12:23:18.483Z,96798.17
2023-04-15T12:25:50.593Z,96798.79
2023-04-15T12:28:16.872Z,96799.77
2023-04-15T12:30:50.163Z,96805.00
2023-04-15T12:33:17.607Z,96809.31
2023-04-15T12:35:43.920Z,96806.14
2023-04-15T12:38:10.273Z,96805.73
2023-04-15T12:40:36.722Z,96808.45
2023-04-15T12:43:03.137Z,96810.98
2023-04-15T12:45:30.028Z,96810.92
2023-04-15T12:47:56.416Z,96812.39
2023-04-15T12:50:22.721Z,96813.47
2023-04-15T12:52:49.107Z,96814.13
2023-04-15T12:55:16.073Z,96812.56
2023-04-15T12:57:42.459Z,96812.39
2023-04-15T13:00:09.128Z,96814.88
2023-04-15T13:02:35.814Z,96814.70
2023-04-15T13:05:02.245Z,96816.27
2023-04-15T13:07:28.647Z,96820.98
2023-04-15T13:09:54.922Z,96825.48
2023-04-15T13:12:21.214Z,96830.95
2023-04-15T13:14:47.503Z,96834.19
2023-04-15T13:17:13.836Z,96837.97
2023-04-15T13:19:40.091Z,96838.84
2023-04-15T13:22:06.946Z,96836.66
2023-04-15T13:24:33.356Z,96836.99
2023-04-15T13:26:59.576Z,96831.84
2023-04-15T13:29:25.876Z,96831.39
2023-04-15T13:31:52.397Z,96829.77
2023-04-15T13:34:18.753Z,96829.48
2023-04-15T13:36:45.167Z,96829.59
2023-04-15T13:39:11.541Z,96830.54
2023-04-15T13:41:37.766Z,96824.55
2023-04-15T13:44:04.408Z,96827.23
2023-04-15T13:46:30.855Z,96829.32
2023-04-15T13:48:57.090Z,96834.73
2023-04-15T13:51:23.462Z,96839.76
2023-04-15T13:53:49.779Z,96843.70
2023-04-15T13:56:16.115Z,96842.67
2023-04-15T13:58:42.532Z,96849.41
2023-04-15T14:01:09.113Z,96850.44
2023-04-15T14:03:35.548Z,96848.79
2023-04-15T14:06:02.315Z,96849.32
2023-04-15T14:08:29.715Z,96852.77
2023-04-15T14:10:55.986Z,96857.40
2023-04-15T14:13:25.170Z,96857.81
2023-04-15T14:15:51.845Z,96857.20
2023-04-15T14:18:18.173Z,96857.86
2023-04-15T14:20:44.813Z,96851.64
2023-04-15T14:23:11.531Z,96852.95
2023-04-15T14:25:37.823Z,96849.79
2023-04-15T14:28:04.448Z,96848.34
2023-04-15T14:30:31.127Z,96845.04
2023-04-15T14:32:57.470Z,96844.41
2023-04-15T14:35:23.872Z,96845.47
2023-04-15T14:37:50.957Z,96847.58
2023-04-15T14:40:17.372Z,96853.39
2023-04-15T14:42:43.685Z,96850.59
2023-04-15T14:45:11.081Z,96847.52
2023-04-15T14:47:37.452Z,96852.14
2023-04-15T14:50:03.983Z,96854.98
2023-04-15T14:52:31.150Z,96854.42
2023-04-15T14:54:57.466Z,96858.67
2023-04-15T14:57:23.938Z,96860.11
2023-04-15T14:59:50.332Z,96863.04
2023-04-15T15:02:31.647Z,96863.16
2023-04-15T15:05:04.032Z,96867.58
2023-04-15T15:07:30.433Z,96869.36
2023-04-15T15:09:56.705Z,96865.70
2023-04-15T15:12:23.006Z,96863.52
2023-04-15T15:14:49.433Z,96867.17
2023-04-15T15:17:15.877Z,96871.92
2023-04-15T15:19:42.485Z,96875.05
2023-04-15T15:22:08.743Z,96878.72
2023-04-15T15:24:34.995Z,96871.86
2023-04-15T15:27:01.757Z,96874.66
2023-04-15T15:29:28.084Z,96870.38
2023-04-15T15:31:54.448Z,96872.88
2023-04-15T15:34:21.106Z,96875.84
2023-04-15T15:36:47.761Z,96882.15
2023-04-15T15:39:14.069Z,96878.55
2023-04-15T15:41:40.744Z,96885.13
2023-04-15T15:44:07.023Z,96887.27
2023-04-15T15:46:33.321Z,96888.44
2023-04-15T15:49:01.535Z,96890.23
2023-04-15T15:51:27.887Z,96893.77
2023-04-15T15:53:54.161Z,96895.83
2023-04-15T15:56:20.720Z,96896.52
2023-04-15T15:58:47.081Z,96898.73
2023-04-15T16:01:13.460Z,96904.71
2023-04-15T16:03:40.001Z,96903.92
2023-04-15T16:06:06.369Z,96903.44
2023-04-15T16:08:32.637Z,96900.59
2023-04-15T16:10:59.336Z,96902.13
2023-04-15T16:13:25.762Z,96900.02
2023-04-15T16:15:52.060Z,96897.99
2023-04-15T16:18:18.530Z,96902.70
2023-04-15T16:20:44.944Z,96901.39
2023-04-15T16:23:12.750Z,96897.89
2023-04-15T16:25:40.389Z,96900.34
2023-04-15T16:28:18.496Z,96900.44
2023-04-15T16:30:49.417Z,96902.27
2023-04-15T16:33:15.749Z,96901.55
2023-04-15T16:35:42.012Z,96906.73
2023-04-15T16:38:08.488Z,96909.35
2023-04-15T16:40:36.057Z,96910.67
2023-04-15T16:43:02.777Z,96915.35
2023-04-15T16:45:29.086Z,96913.42
2023-04-15T16:47:55.420Z,96917.09
2023-04-15T16:50:22.006Z,96916.41
2023-04-15T16:56:16.876Z,96927.93
2023-04-15T16:58:43.580Z,96927.87
2023-04-15T17:01:09.990Z,96927.98
2023-04-15T17:03:36.706Z,96929.23
2023-04-15T17:06:03.815Z,96936.33
2023-04-15T17:08:30.368Z,96947.50
2023-04-15T17:11:00.225Z,96961.25
2023-04-15T17:13:26.645Z,96986.80
2023-04-15T17:15:55.624Z,97002.09
2023-04-15T17:18:24.050Z,97002.08
2023-04-15T17:21:03.352Z,97010.70
2023-04-15T17:23:29.866Z,97020.41
2023-04-15T17:25:57.375Z,97034.45
2023-04-15T17:28:24.106Z,97046.54
2023-04-15T17:30:53.013Z,97058.86
2023-04-15T18:01:59.507Z,97086.38
2023-04-15T18:04:26.896Z,97088.14
2023-04-15T18:06:53.889Z,97092.11
2023-04-15T18:09:20.853Z,97103.10
2023-04-15T18:11:47.199Z,97105.29
2023-04-15T18:14:33.033Z,97103.79
2023-04-15T18:17:10.587Z,97103.83
2023-04-15T18:19:36.946Z,97104.33
2023-04-15T18:22:04.878Z,97106.59
2023-04-15T18:24:32.130Z,97108.60
2023-04-15T18:26:58.470Z,97116.88
2023-04-15T18:29:27.290Z,97117.30
2023-04-15T18:31:54.475Z,97119.70
2023-04-15T18:34:23.861Z,97120.98
2023-04-15T18:36:50.274Z,97120.95
2023-04-15T18:39:17.074Z,97116.17
2023-04-15T18:41:43.743Z,97112.59
2023-04-15T18:44:10.232Z,97117.68
2023-04-15T18:46:37.017Z,97118.83
2023-04-15T18:49:03.988Z,97120.56
2023-04-15T18:51:30.747Z,97119.91
2023-04-15T18:53:57.771Z,97123.77
2023-04-15T18:56:24.748Z,97127.79
2023-04-15T18:59:28.559Z,97133.53
2023-04-15T19:01:44.746Z,97143.67
2023-04-15T19:04:11.937Z,97147.83
2023-04-15T19:06:56.250Z,97156.14
2023-04-15T19:09:22.861Z,97155.17
2023-04-15T19:11:49.254Z,97157.64
2023-04-15T19:14:16.453Z,97152.83
2023-04-15T19:19:32.072Z,97150.83
2023-04-15T19:22:02.557Z,97154.40
2023-04-15T19:24:35.667Z,97153.58
2023-04-15T19:27:02.181Z,97157.58
2023-04-15T19:29:29.046Z,97158.27
2023-04-15T19:32:01.452Z,97158.31
2023-04-15T19:34:27.970Z,97157.18
2023-04-15T19:36:54.480Z,97156.74
2023-04-15T19:39:21.296Z,97154.30
2023-04-15T19:41:48.104Z,97159.17
2023-04-15T19:44:16.031Z,97163.88
2023-04-15T19:46:43.586Z,97169.67
2023-04-15T19:49:10.232Z,97175.59
2023-04-15T19:51:37.675Z,97172.14
2023-04-15T19:54:04.323Z,97171.95
2023-04-15T19:56:32.843Z,97170.39
2023-04-15T19:59:01.046Z,97173.80
2023-04-15T20:01:27.548Z,97176.88
2023-04-15T20:03:54.184Z,97182.10
2023-04-15T20:06:21.940Z,97181.44
2023-04-15T20:08:48.306Z,97182.65
2023-04-15T20:11:15.179Z,97185.77
2023-04-15T20:13:41.664Z,97188.63
2023-04-15T20:21:59.072Z,97189.25
2023-04-15T20:24:30.552Z,97190.98
2023-04-15T20:26:57.140Z,97191.38
2023-04-15T20:29:23.517Z,97189.38
2023-04-15T20:31:49.952Z,97182.80
2023-04-15T20:34:16.462Z,97181.91
2023-04-15T20:36:42.920Z,97177.13
2023-04-15T20:39:09.349Z,97175.02
2023-04-15T20:41:36.033Z,97171.17
2023-04-15T20:44:05.535Z,97169.96
2023-04-15T20:46:44.423Z,97174.70
2023-04-15T20:49:10.803Z,97172.98
2023-04-15T20:51:40.433Z,97173.36
2023-04-15T20:54:14.108Z,97171.88
2023-04-15T20:56:40.858Z,97173.70
2023-04-15T20:59:07.735Z,97176.98
2023-04-15T21:01:35.542Z,97175.08
2023-04-15T21:04:01.956Z,97182.19
2023-04-15T21:06:28.413Z,97186.19
2023-04-15T21:08:54.858Z,97197.18
2023-04-15T21:11:40.621Z,97199.24
2023-04-15T21:14:07.561Z,97208.02
2023-04-15T21:16:34.060Z,97212.29
2023-04-15T21:19:00.401Z,97215.94
2023-04-15T21:21:26.982Z,97219.05
2023-04-15T21:23:54.777Z,97222.01
2023-04-15T21:26:21.036Z,97224.61
2023-04-15T21:28:47.312Z,97230.62
2023-04-15T21:31:13.755Z,97236.27
2023-04-15T21:33:40.045Z,97241.76
2023-04-15T21:36:06.572Z,97245.27
2023-04-15T21:38:33.042Z,97245.85
2023-04-15T21:40:59.335Z,97253.43
2023-04-15T21:43:25.803Z,97256.11
2023-04-15T21:46:22.418Z,97256.87
2023-04-15T21:48:38.959Z,97259.52
2023-04-15T21:51:05.587Z,97263.44
2023-04-15T21:53:31.927Z,97264.08
2023-04-15T21:55:58.250Z,97270.57
2023-04-15T21:58:24.541Z,97275.39
2023-04-15T22:00:51.428Z,97278.85
2023-04-15T22:03:17.802Z,97285.13
2023-04-15T22:05:44.721Z,97288.08
2023-04-15T22:08:11.262Z,97289.73
2023-04-15T22:10:37.981Z,97290.05
2023-04-15T22:13:04.847Z,97287.21
2023-04-15T22:15:31.110Z,97287.69
2023-04-15T22:17:57.518Z,97286.38
2023-04-15T22:20:23.865Z,97290.09
2023-04-15T22:22:50.166Z,97293.39
2023-04-15T22:25:21.029Z,97295.67
2023-04-15T22:27:47.334Z,97303.18
2023-04-15T22:30:13.647Z,97306.05
2023-04-15T22:32:40.125Z,97308.41
2023-04-15T22:35:06.759Z,97312.75
2023-04-15T22:37:33.062Z,97315.46
2023-04-15T22:39:59.500Z,97318.79
2023-04-15T22:42:25.930Z,97315.05
2023-04-15T22:44:52.226Z,97314.55
2023-04-15T22:47:18.826Z,97317.31
2023-04-15T22:49:45.139Z,97324.55
2023-04-15T22:52:17.159Z,97328.41
2023-04-15T22:54:50.036Z,97328.73
2023-04-15T22:57:16.495Z,97329.09
2023-04-15T22:59:42.733Z,97334.72
2023-04-15T23:02:09.153Z,97339.02
2023-04-15T23:04:35.613Z,97338.77
2023-04-15T23:07:02.007Z,97340.05
2023-04-15T23:09:28.330Z,97341.17
2023-04-15T23:11:54.787Z,97344.73
2023-04-15T23:14:22.343Z,97346.90
2023-04-15T23:16:48.684Z,97346.62
2023-04-15T23:19:14.976Z,97349.84
2023-04-15T23:21:41.231Z,97348.52
2023-04-15T23:24:07.555Z,97345.26
2023-04-15T23:26:33.978Z,97347.27
2023-04-15T23:29:00.318Z,97349.30
2023-04-15T23:31:26.702Z,97354.45
2023-04-15T23:33:52.996Z,97350.52
2023-04-15T23:36:19.294Z,97351.27
2023-04-15T23:38:45.586Z,97351.92
2023-04-15T23:41:11.818Z,97352.66
2023-04-15T23:43:38.121Z,97355.93
2023-04-15T23:46:04.643Z,97359.01
2023-04-15T23:48:30.873Z,97359.02
2023-04-15T23:50:57.197Z,97354.14
2023-04-15T23:53:23.481Z,97356.29
2023-04-15T23:55:49.705Z,97359.86
2023-04-15T23:58:15.978Z,97359.11
